Current Weather

Kenosha Rgnl

Kenosha, Wisconsin (KENW)

Report from: Friday, April 19, 2024 2:53 AM CDT
Current time: Friday, April 19, 2024 4:04 AM CDT

Nearby weather – Weather history – Daily summaries
Weather forecast

Temperature7.8°C (46.0°F)
Wind chill4.4°C (39.9°F)
Dew point1.7°C (35.1°F)
Winds 12 kts (6.2 m/s, 13.8 mph) North-Northwest (330°)
Wind gusts 20 kts (10.3 m/s, 23 mph)
Visibility10 mi. (16.1 km)
Clouds Sky clear
Altimeter30.02 in.Hg (1017 mB)
Relative humidity65 %
Density altitude-878 ft. (-268 m)
Sea-level pressure101.7 kPa (1017 mB, 30.02 in.Hg)
Remarks Fully automated report
Automated weather observing station with precipitation discriminator
Flight conditions Visual Meteorological Conditions
Raw dataKENW 190753Z AUTO 33012G20KT 10SM CLR 08/02 A3002 RMK AO2 SLP167 T00780017
An error has occurred. This application may no longer respond until reloaded. Reload 🗙